Página principal
METAR-TAF:

METAR-TAF

Aeroportos :

Aeroporto Internacional de Dubai

Dubai, Emirados Árabes Unidos

latitude: 25-15-10N, longitude: 055-21-52E, altura: 8 m

Observação actual do tempo

O boletim foi feito há 27 minutos, às 01:00 UTC
Vento 3 kt de sul, variando entre sudeste e su-sudoeste
Temperatura 25°C
Humidade 69%
Pressão 1012 hPa
Visibilidade 10 km ou mais
sem nuvens abaixo de 1500 metros e sem cumulonimbus

METAR: OMDB 140100Z 18003KT 140V210 CAVOK 25/19 Q1012 NOSIG

Hora: 05:27 (01:27 UTC)

Previsão

O boletim foi feito há 2 horas e 33 minutos, às 22:54 UTC
Previsão válida de 14 às 00 UTC a 15 às 06 UTC
Vento 5 kt de sul
Visibilidade 10 km ou mais
sem nuvens abaixo de 1500 metros e sem cumulonimbus
Tornando-se
de 14 às 07 UTC a 14 às 09 UTC
Vento 10 kt de nor-noroeste
Tornando-se
de 14 às 15 UTC a 14 às 17 UTC
Vento 5 kt de este

TAF: OMDB 132254Z 1400/1506 19005KT CAVOK BECMG 1407/1409 33010KT BECMG 1415/1417 10005KT

Observações e previsões do tempo de mais de 4000 aeroportos (mensagens METAR e TAF).

As estações disponíveis são os pontos amarelos e vermelhos sobre o mapa.

Mova o rato sobre o mapa para ver o nome da estação.

Depois clique no ponto para visualizar as observações e previsões meteorológicas.

Para alterar o mapa : clique nos botões verdes com uma cruz preta para aumentar o zoom; no botão verde com uma pitada de zoom; ou nas setas verdes para mapas adjacentes.


METAR-TAF: